createdAt,value
2022-12-31T00:01:59.184Z,89.07
2022-12-31T00:08:14.329Z,89.12
2022-12-31T00:10:42.483Z,89.16
2022-12-31T00:13:20.276Z,88.91
2022-12-31T00:15:48.445Z,89.08
2022-12-31T00:18:23.955Z,89.13
2022-12-31T00:20:50.849Z,88.96
2022-12-31T00:23:17.311Z,89.23
2022-12-31T00:25:43.784Z,88.93
2022-12-31T00:28:10.367Z,89.16
2022-12-31T00:30:36.906Z,89.00
2022-12-31T00:33:04.741Z,89.06
2022-12-31T00:35:34.541Z,89.28
2022-12-31T00:38:01.323Z,89.08
2022-12-31T00:40:32.519Z,89.42
2022-12-31T00:43:09.832Z,90.30
2022-12-31T00:46:10.296Z,91.22
2022-12-31T00:51:51.050Z,91.59
2022-12-31T00:54:18.866Z,91.33
2022-12-31T00:56:46.072Z,91.48
2022-12-31T00:59:12.879Z,91.78
2022-12-31T01:01:42.599Z,91.44
2022-12-31T01:04:18.208Z,91.59
2022-12-31T01:06:45.370Z,91.44
2022-12-31T01:09:14.916Z,91.18
2022-12-31T01:11:46.252Z,91.45
2022-12-31T01:14:28.314Z,91.21
2022-12-31T01:16:54.877Z,90.90
2022-12-31T01:19:25.624Z,91.21
2022-12-31T01:21:54.253Z,91.30
2022-12-31T01:24:21.275Z,90.98
2022-12-31T01:26:49.078Z,91.27
2022-12-31T01:29:17.662Z,90.84
2022-12-31T01:31:49.068Z,90.68
2022-12-31T01:37:32.052Z,90.59
2022-12-31T01:40:00.475Z,90.56
2022-12-31T01:42:27.381Z,90.06
2022-12-31T01:45:39.071Z,90.00
2022-12-31T01:51:40.301Z,89.32
2022-12-31T01:54:09.332Z,88.91
2022-12-31T01:56:42.708Z,88.37
2022-12-31T02:01:56.050Z,87.81
2022-12-31T02:04:24.619Z,87.63
2022-12-31T02:06:59.106Z,87.09
2022-12-31T02:09:25.820Z,87.07
2022-12-31T02:11:52.622Z,87.04
2022-12-31T02:14:26.950Z,86.77
2022-12-31T02:16:59.642Z,86.48
2022-12-31T02:19:59.777Z,86.27
2022-12-31T02:23:19.375Z,86.13
2022-12-31T02:26:31.183Z,86.08
2022-12-31T02:29:37.601Z,86.16
2022-12-31T02:32:16.970Z,86.01
2022-12-31T02:35:12.667Z,85.84
2022-12-31T02:37:42.143Z,85.25
2022-12-31T02:40:12.620Z,85.34
2022-12-31T02:42:39.453Z,84.95
2022-12-31T02:45:10.246Z,84.88
2022-12-31T02:47:57.940Z,84.54
2022-12-31T02:50:33.252Z,84.19
2022-12-31T02:53:05.828Z,84.44
2022-12-31T02:55:38.264Z,84.36
2022-12-31T02:58:13.627Z,83.76
2022-12-31T03:01:09.293Z,83.69
2022-12-31T03:03:36.695Z,83.22
2022-12-31T03:06:09.602Z,82.43
2022-12-31T03:08:56.096Z,82.52
2022-12-31T03:11:41.133Z,82.12
2022-12-31T03:17:10.501Z,82.47
2022-12-31T03:19:57.841Z,82.16
2022-12-31T03:22:28.557Z,82.38
2022-12-31T03:25:15.088Z,82.66
2022-12-31T03:27:43.759Z,82.80
2022-12-31T03:30:11.614Z,82.70
2022-12-31T03:32:38.402Z,83.07
2022-12-31T03:35:30.799Z,83.58
2022-12-31T03:38:22.962Z,83.68
2022-12-31T03:44:16.815Z,83.52
2022-12-31T03:46:43.477Z,83.62
2022-12-31T03:52:21.465Z,83.48
2022-12-31T03:57:48.460Z,83.34
2022-12-31T04:03:38.549Z,82.90
2022-12-31T04:06:08.309Z,83.00
2022-12-31T04:11:45.246Z,82.69
2022-12-31T04:14:12.032Z,82.49
2022-12-31T04:16:42.023Z,82.55
2022-12-31T04:19:11.586Z,82.09
2022-12-31T04:21:40.895Z,81.86
2022-12-31T04:24:19.635Z,81.41
2022-12-31T04:27:07.739Z,81.73
2022-12-31T04:29:36.523Z,81.59
2022-12-31T04:32:05.101Z,81.26
2022-12-31T04:34:47.478Z,81.19
2022-12-31T04:37:46.994Z,80.67
2022-12-31T04:40:17.730Z,80.56
2022-12-31T05:25:31.004Z,80.23
2022-12-31T05:58:36.125Z,80.63
2022-12-31T06:21:16.283Z,79.60
2022-12-31T07:54:13.950Z,77.43
2022-12-31T07:56:41.586Z,77.45
2022-12-31T07:59:26.137Z,77.23
2022-12-31T08:01:57.366Z,77.16
2022-12-31T08:05:25.296Z,77.12
2022-12-31T08:07:58.706Z,77.09
2022-12-31T08:10:35.473Z,77.14
2022-12-31T08:13:04.183Z,77.24
2022-12-31T08:15:31.399Z,76.89
2022-12-31T08:17:58.025Z,77.16
2022-12-31T08:20:25.602Z,77.22
2022-12-31T08:23:13.790Z,77.19
2022-12-31T08:26:04.405Z,77.42
2022-12-31T08:28:52.033Z,77.12
2022-12-31T08:31:21.437Z,77.13
2022-12-31T08:34:00.684Z,77.21
2022-12-31T08:36:49.045Z,76.98
2022-12-31T08:39:37.663Z,76.84
2022-12-31T08:42:08.396Z,76.67
2022-12-31T08:45:25.455Z,76.81
2022-12-31T08:48:16.762Z,76.63
2022-12-31T08:50:43.704Z,76.41
2022-12-31T08:53:10.330Z,76.64
2022-12-31T08:55:37.032Z,76.17
2022-12-31T08:58:42.612Z,76.10
2022-12-31T09:01:09.770Z,75.99
2022-12-31T09:03:42.636Z,75.80
2022-12-31T09:06:20.389Z,75.81
2022-12-31T09:09:19.420Z,75.32
2022-12-31T09:12:04.779Z,75.19
2022-12-31T09:14:37.432Z,75.02
2022-12-31T09:17:24.067Z,75.11
2022-12-31T09:19:50.799Z,74.93
2022-12-31T09:22:17.679Z,74.85
2022-12-31T09:24:44.273Z,74.43
2022-12-31T09:27:17.662Z,74.41
2022-12-31T09:30:04.243Z,74.25
2022-12-31T09:33:02.743Z,74.21
2022-12-31T09:35:47.143Z,74.24
2022-12-31T09:38:21.284Z,74.30
2022-12-31T09:40:47.690Z,73.96
2022-12-31T09:43:35.164Z,73.84
2022-12-31T09:46:20.522Z,73.71
2022-12-31T09:48:50.900Z,73.72
2022-12-31T09:51:30.038Z,74.10
2022-12-31T09:54:02.247Z,73.73
2022-12-31T09:56:57.154Z,73.73
2022-12-31T09:59:41.983Z,73.88
2022-12-31T10:02:28.467Z,73.96
2022-12-31T10:04:58.802Z,73.88
2022-12-31T10:07:38.611Z,73.64
2022-12-31T10:10:29.552Z,73.56
2022-12-31T10:13:04.979Z,73.35
2022-12-31T10:15:53.270Z,73.34
2022-12-31T10:18:46.932Z,72.93
2022-12-31T10:21:31.320Z,73.40
2022-12-31T10:24:36.217Z,72.93
2022-12-31T10:27:28.678Z,72.95
2022-12-31T10:30:03.629Z,72.96
2022-12-31T10:33:04.243Z,72.90
2022-12-31T10:35:51.947Z,72.57
2022-12-31T10:38:30.920Z,72.70
2022-12-31T10:41:24.008Z,72.92
2022-12-31T10:44:14.301Z,72.85
2022-12-31T10:46:51.409Z,72.76
2022-12-31T10:49:47.939Z,72.49
2022-12-31T10:52:42.250Z,72.54
2022-12-31T10:55:38.589Z,72.50
2022-12-31T10:58:24.712Z,71.89
2022-12-31T11:01:05.404Z,72.15
2022-12-31T11:03:37.893Z,71.76
2022-12-31T11:06:28.672Z,71.94
2022-12-31T11:09:31.261Z,71.90
2022-12-31T11:12:28.161Z,71.91
2022-12-31T11:15:34.363Z,71.78
2022-12-31T11:18:25.570Z,71.99
2022-12-31T11:21:04.280Z,71.88
2022-12-31T11:23:50.953Z,71.80
2022-12-31T11:26:48.173Z,71.99
2022-12-31T11:29:25.898Z,71.90
2022-12-31T11:31:59.411Z,71.93
2022-12-31T11:35:04.762Z,71.79
2022-12-31T11:37:48.001Z,71.75
2022-12-31T11:40:35.367Z,71.74
2022-12-31T11:43:11.031Z,71.63
2022-12-31T11:45:43.246Z,71.57
2022-12-31T11:48:32.921Z,71.14
2022-12-31T11:51:38.065Z,70.97
2022-12-31T11:54:22.598Z,70.66
2022-12-31T11:57:16.564Z,70.68
2022-12-31T11:59:43.103Z,70.52
2022-12-31T12:02:26.140Z,70.30
2022-12-31T12:04:53.535Z,70.20
2022-12-31T12:07:20.247Z,70.00
2022-12-31T12:09:46.712Z,69.82
2022-12-31T12:12:13.316Z,69.66
2022-12-31T12:14:42.417Z,69.43
2022-12-31T12:17:15.984Z,69.51
2022-12-31T12:19:45.363Z,69.07
2022-12-31T12:22:13.536Z,69.02
2022-12-31T12:24:40.211Z,69.02
2022-12-31T12:27:21.382Z,69.16
2022-12-31T12:29:48.720Z,68.92
2022-12-31T12:32:21.256Z,68.86
2022-12-31T12:34:49.857Z,68.98
2022-12-31T12:37:22.602Z,69.13
2022-12-31T12:40:00.781Z,68.71
2022-12-31T12:42:27.848Z,68.84
2022-12-31T12:45:14.339Z,68.88
2022-12-31T12:47:42.256Z,68.68
2022-12-31T12:50:17.038Z,68.56
2022-12-31T12:53:17.139Z,68.35
2022-12-31T12:56:03.827Z,68.29
2022-12-31T12:58:52.163Z,68.33
2022-12-31T13:01:46.889Z,68.27
2022-12-31T13:04:35.545Z,68.35
2022-12-31T13:07:14.401Z,68.20
2022-12-31T13:09:54.322Z,67.67
2022-12-31T13:13:22.923Z,67.13
2022-12-31T13:15:50.722Z,67.18
2022-12-31T13:18:29.027Z,67.26
2022-12-31T13:21:00.926Z,67.23
2022-12-31T13:23:44.155Z,67.04
2022-12-31T13:26:20.394Z,66.56
2022-12-31T13:28:48.185Z,66.24
2022-12-31T13:31:18.331Z,66.19
2022-12-31T13:33:48.195Z,66.13
2022-12-31T13:36:17.581Z,65.64
2022-12-31T13:38:52.518Z,65.25
2022-12-31T13:41:29.098Z,65.13
2022-12-31T13:44:04.795Z,65.01
2022-12-31T13:46:40.881Z,64.85
2022-12-31T13:49:22.890Z,64.70
2022-12-31T13:51:51.508Z,64.78
2022-12-31T13:54:31.249Z,64.61
2022-12-31T13:57:01.996Z,64.29
2022-12-31T13:59:32.945Z,64.40
2022-12-31T14:02:08.872Z,64.37
2022-12-31T14:05:24.681Z,64.26
2022-12-31T14:07:54.185Z,64.12
2022-12-31T14:10:28.389Z,63.86
2022-12-31T14:13:27.900Z,64.23
2022-12-31T14:16:07.492Z,63.68
2022-12-31T14:19:11.479Z,63.84
2022-12-31T14:22:10.592Z,62.83
2022-12-31T14:24:49.760Z,62.92
2022-12-31T14:27:17.931Z,62.91
2022-12-31T14:29:51.741Z,62.68
2022-12-31T14:32:23.925Z,62.94
2022-12-31T14:34:56.250Z,62.92
2022-12-31T14:37:42.918Z,63.10
2022-12-31T14:40:25.611Z,63.49
2022-12-31T14:43:07.728Z,63.43
2022-12-31T14:45:46.333Z,63.63
2022-12-31T14:48:27.307Z,63.77
2022-12-31T14:50:53.937Z,63.30
2022-12-31T14:53:25.584Z,63.52
2022-12-31T14:56:05.348Z,63.74
2022-12-31T14:58:39.275Z,63.78
2022-12-31T15:01:08.768Z,63.85
2022-12-31T15:03:45.050Z,64.02
2022-12-31T15:06:31.073Z,64.25
2022-12-31T15:09:20.659Z,64.31
2022-12-31T15:12:12.191Z,64.36
2022-12-31T15:14:38.544Z,64.35
2022-12-31T15:17:42.365Z,64.39
2022-12-31T15:20:21.893Z,64.62
2022-12-31T15:22:49.994Z,64.50
2022-12-31T15:25:40.799Z,64.60
2022-12-31T15:28:23.916Z,64.50
2022-12-31T15:30:51.377Z,64.40
2022-12-31T15:33:38.043Z,64.56
2022-12-31T15:36:14.102Z,64.70
2022-12-31T15:38:42.033Z,64.37
2022-12-31T15:41:26.800Z,64.61
2022-12-31T15:44:06.426Z,64.87
2022-12-31T15:46:37.581Z,64.66
2022-12-31T15:49:18.069Z,64.43
2022-12-31T15:51:56.080Z,64.30
2022-12-31T15:54:30.711Z,63.99
2022-12-31T15:56:58.137Z,63.59
2022-12-31T15:59:26.647Z,63.46
2022-12-31T16:01:55.111Z,63.11
2022-12-31T16:04:24.650Z,62.95
2022-12-31T16:06:51.832Z,62.87
2022-12-31T16:09:27.679Z,62.92
2022-12-31T16:11:55.149Z,62.91
2022-12-31T16:14:36.397Z,62.94
2022-12-31T16:17:03.055Z,62.53
2022-12-31T16:19:35.740Z,62.79
2022-12-31T16:22:08.531Z,63.02
2022-12-31T16:24:48.900Z,62.93
2022-12-31T16:27:22.284Z,62.61
2022-12-31T16:29:55.949Z,62.95
2022-12-31T16:32:22.613Z,62.92
2022-12-31T16:34:49.069Z,62.91
2022-12-31T16:37:20.552Z,63.26
2022-12-31T16:39:55.975Z,63.08
2022-12-31T16:42:28.783Z,63.13
2022-12-31T16:44:57.335Z,63.43
2022-12-31T16:47:34.107Z,63.47
2022-12-31T16:50:18.377Z,63.46
2022-12-31T16:52:47.370Z,63.57
2022-12-31T16:55:19.486Z,63.27
2022-12-31T16:57:48.291Z,62.58
2022-12-31T17:00:19.003Z,62.32
2022-12-31T17:02:49.345Z,62.07
2022-12-31T17:05:18.959Z,61.77
2022-12-31T17:07:45.471Z,61.75
2022-12-31T17:10:23.859Z,61.41
2022-12-31T17:15:43.582Z,60.56
2022-12-31T17:18:19.269Z,60.86
2022-12-31T17:20:46.276Z,60.60
2022-12-31T17:23:21.002Z,60.41
2022-12-31T17:25:47.827Z,59.77
2022-12-31T17:28:25.165Z,59.26
2022-12-31T17:30:51.783Z,59.25
2022-12-31T17:33:21.347Z,58.96
2022-12-31T17:35:48.739Z,58.82
2022-12-31T17:38:18.030Z,57.88
2022-12-31T17:40:53.179Z,57.83
2022-12-31T17:43:21.550Z,57.06
2022-12-31T17:45:51.238Z,57.34
2022-12-31T17:48:19.216Z,57.37
2022-12-31T17:50:51.985Z,57.04
2022-12-31T17:53:19.111Z,56.88
2022-12-31T17:55:47.497Z,56.45
2022-12-31T17:58:22.458Z,56.45
2022-12-31T18:00:53.207Z,56.44
2022-12-31T18:03:19.716Z,56.70
2022-12-31T18:05:46.135Z,56.66
2022-12-31T18:08:12.553Z,56.73
2022-12-31T18:10:40.749Z,56.92
2022-12-31T18:13:14.273Z,56.96
2022-12-31T18:15:40.745Z,57.10
2022-12-31T18:18:25.534Z,56.91
2022-12-31T18:21:00.458Z,57.13
2022-12-31T18:23:47.458Z,57.35
2022-12-31T18:26:22.350Z,57.52
2022-12-31T18:28:49.350Z,58.02
2022-12-31T18:31:26.929Z,58.25
2022-12-31T18:33:55.470Z,58.54
2022-12-31T18:36:22.476Z,58.67
2022-12-31T18:38:49.030Z,58.73
2022-12-31T18:41:20.465Z,58.39
2022-12-31T18:43:47.301Z,58.73
2022-12-31T18:46:16.021Z,58.76
2022-12-31T18:48:42.526Z,58.32
2022-12-31T18:51:17.156Z,58.41
2022-12-31T18:53:43.647Z,58.20
2022-12-31T18:56:12.978Z,58.47
2022-12-31T18:58:40.087Z,58.29
2022-12-31T19:01:28.184Z,58.52
2022-12-31T19:03:56.635Z,58.53
2022-12-31T19:06:23.719Z,58.38
2022-12-31T19:08:50.183Z,58.10
2022-12-31T19:11:17.364Z,58.00
2022-12-31T19:13:43.809Z,57.63
2022-12-31T19:16:10.704Z,57.40
2022-12-31T19:18:37.226Z,56.58
2022-12-31T19:21:04.481Z,56.25
2022-12-31T19:23:30.867Z,55.87
2022-12-31T19:25:57.480Z,55.72
2022-12-31T19:28:25.586Z,55.44
2022-12-31T19:30:52.506Z,55.22
2022-12-31T19:33:19.604Z,55.45
2022-12-31T19:35:46.675Z,55.31
2022-12-31T19:38:24.666Z,55.55
2022-12-31T19:40:52.494Z,55.87
2022-12-31T19:43:21.344Z,55.82
2022-12-31T19:45:48.238Z,56.12
2022-12-31T19:48:16.983Z,56.19
2022-12-31T19:50:53.738Z,56.32
2022-12-31T19:53:25.515Z,56.29
2022-12-31T19:55:52.557Z,56.34
2022-12-31T19:58:25.351Z,56.33
2022-12-31T20:01:01.968Z,56.58
2022-12-31T20:03:29.241Z,56.37
2022-12-31T20:06:03.869Z,56.71
2022-12-31T20:08:30.292Z,56.86
2022-12-31T20:10:58.807Z,57.31
2022-12-31T20:13:26.593Z,57.44
2022-12-31T20:15:53.986Z,57.66
2022-12-31T20:18:21.178Z,57.37
2022-12-31T20:20:55.146Z,57.78
2022-12-31T20:23:22.138Z,57.39
2022-12-31T20:25:58.985Z,57.57
2022-12-31T20:28:25.819Z,57.27
2022-12-31T20:30:52.436Z,57.44
2022-12-31T20:33:19.441Z,57.49
2022-12-31T20:35:46.261Z,57.25
2022-12-31T20:38:12.705Z,57.35
2022-12-31T20:40:46.214Z,57.35
2022-12-31T20:43:13.266Z,57.22
2022-12-31T20:45:40.955Z,57.16
2022-12-31T20:48:07.506Z,57.35
2022-12-31T20:50:34.192Z,57.39
2022-12-31T20:53:00.592Z,57.07
2022-12-31T20:55:27.306Z,57.11
2022-12-31T20:57:53.726Z,57.33
2022-12-31T21:00:20.162Z,57.18
2022-12-31T21:02:53.900Z,57.67
2022-12-31T21:05:24.458Z,57.57
2022-12-31T21:07:51.679Z,57.52
2022-12-31T21:10:18.193Z,57.46
2022-12-31T21:12:44.773Z,57.47
2022-12-31T21:15:12.567Z,57.52
2022-12-31T21:17:41.835Z,57.77
2022-12-31T21:20:08.809Z,57.67
2022-12-31T21:22:35.272Z,57.45
2022-12-31T21:25:02.037Z,57.35
2022-12-31T21:27:29.579Z,57.79
2022-12-31T21:30:20.849Z,57.81
2022-12-31T21:32:42.936Z,57.30
2022-12-31T21:35:41.091Z,57.36
2022-12-31T21:38:00.664Z,56.98
2022-12-31T21:40:28.064Z,57.05
2022-12-31T21:42:54.681Z,56.74
2022-12-31T21:45:21.115Z,56.36
2022-12-31T21:48:06.222Z,56.40
2022-12-31T21:50:33.565Z,56.09
2022-12-31T21:53:00.010Z,56.04
2022-12-31T21:55:45.271Z,55.83
2022-12-31T21:58:28.105Z,55.99
2022-12-31T22:01:15.201Z,55.98
2022-12-31T22:03:42.153Z,55.72
2022-12-31T22:06:14.007Z,56.31
2022-12-31T22:08:42.811Z,56.61
2022-12-31T22:11:10.354Z,56.08
2022-12-31T22:13:37.345Z,56.80
2022-12-31T22:16:06.005Z,56.62
2022-12-31T22:18:40.802Z,56.54
2022-12-31T22:21:17.737Z,56.53
2022-12-31T22:23:46.064Z,56.57
2022-12-31T22:26:14.257Z,56.35
2022-12-31T22:28:42.221Z,56.29
2022-12-31T22:31:14.892Z,56.09
2022-12-31T22:33:42.407Z,56.20
2022-12-31T22:36:12.321Z,56.14
2022-12-31T22:38:39.279Z,56.51
2022-12-31T22:41:08.641Z,56.74
2022-12-31T22:43:37.176Z,56.93
2022-12-31T22:46:08.612Z,56.56
2022-12-31T22:48:35.134Z,56.87
2022-12-31T22:51:01.754Z,56.57
2022-12-31T22:53:29.560Z,56.83
2022-12-31T22:55:56.382Z,57.15
2022-12-31T22:58:24.046Z,57.23
2022-12-31T23:00:50.870Z,57.25
2022-12-31T23:03:18.255Z,57.31
2022-12-31T23:05:46.200Z,57.56
2022-12-31T23:08:20.668Z,57.79
2022-12-31T23:11:01.073Z,57.81
2022-12-31T23:13:54.585Z,58.27
2022-12-31T23:16:41.274Z,58.15
2022-12-31T23:19:26.626Z,58.08
2022-12-31T23:22:12.521Z,58.37
2022-12-31T23:24:42.607Z,58.40
2022-12-31T23:27:12.496Z,58.45
2022-12-31T23:29:45.989Z,58.53
2022-12-31T23:32:14.827Z,58.74
2022-12-31T23:34:43.497Z,58.99
2022-12-31T23:37:13.243Z,58.91
2022-12-31T23:39:40.350Z,58.98
2022-12-31T23:42:07.238Z,59.01
2022-12-31T23:44:34.088Z,59.20
